createdAt,value
2024-05-09T00:00:06.411Z,61.21
2024-05-09T00:00:18.669Z,61.24
2024-05-09T00:00:30.579Z,61.24
2024-05-09T00:00:44.378Z,61.24
2024-05-09T00:00:54.285Z,61.34
2024-05-09T00:01:04.307Z,61.52
2024-05-09T00:01:14.289Z,61.61
2024-05-09T00:01:24.232Z,61.65
2024-05-09T00:01:34.351Z,61.75
2024-05-09T00:01:44.316Z,61.85
2024-05-09T00:01:54.303Z,61.93
2024-05-09T00:02:14.351Z,62.16
2024-05-09T00:02:24.315Z,62.26
2024-05-09T00:02:34.215Z,62.36
2024-05-09T00:02:44.169Z,62.46
2024-05-09T00:02:54.263Z,62.46
2024-05-09T00:03:04.198Z,62.54
2024-05-09T00:03:24.334Z,62.84
2024-05-09T00:03:34.246Z,63.07
2024-05-09T00:03:44.336Z,63.04
2024-05-09T00:03:54.204Z,63.18
2024-05-09T00:04:04.548Z,63.18
2024-05-09T00:04:14.185Z,63.28
2024-05-09T00:04:34.230Z,63.38
2024-05-09T00:04:44.261Z,63.48
2024-05-09T00:04:54.297Z,63.38
2024-05-09T00:05:04.449Z,63.28
2024-05-09T00:05:14.269Z,63.28
2024-05-09T00:05:24.258Z,63.28
2024-05-09T00:05:34.631Z,63.28
2024-05-09T00:05:54.268Z,63.18
2024-05-09T00:06:04.443Z,63.04
2024-05-09T00:06:14.392Z,63.04
2024-05-09T00:06:24.170Z,62.97
2024-05-09T00:06:34.170Z,62.97
2024-05-09T00:06:44.220Z,62.97
2024-05-09T00:07:04.170Z,62.87
2024-05-09T00:07:14.791Z,62.63
2024-05-09T00:07:24.156Z,62.46
2024-05-09T00:07:34.179Z,62.33
2024-05-09T00:07:44.236Z,62.13
2024-05-09T00:07:54.194Z,62.26
2024-05-09T00:08:04.321Z,62.33
2024-05-09T00:08:24.216Z,62.63
2024-05-09T00:08:34.215Z,62.87
2024-05-09T00:08:44.836Z,63.07
2024-05-09T00:08:54.800Z,62.97
2024-05-09T00:09:04.159Z,63.04
2024-05-09T00:09:14.148Z,63.18
2024-05-09T00:09:24.150Z,63.38
2024-05-09T00:09:34.183Z,63.58
2024-05-09T00:09:54.160Z,63.79
2024-05-09T00:10:22.480Z,63.99
2024-05-09T00:10:32.675Z,63.96
2024-05-09T00:10:37.342Z,64.09
2024-05-09T00:10:44.264Z,64.29
2024-05-09T00:11:04.435Z,64.50
2024-05-09T00:11:14.365Z,64.60
2024-05-09T00:11:24.343Z,64.70
2024-05-09T00:11:34.181Z,64.70
2024-05-09T00:11:44.188Z,64.84
2024-05-09T00:11:54.269Z,64.90
2024-05-09T00:12:14.948Z,64.90
2024-05-09T00:12:24.305Z,65.01
2024-05-09T00:12:34.142Z,65.14
2024-05-09T00:12:44.790Z,65.25
2024-05-09T00:12:54.147Z,65.34
2024-05-09T00:13:04.131Z,65.48
2024-05-09T00:13:24.238Z,65.34
2024-05-09T00:13:34.123Z,65.45
2024-05-09T00:13:44.160Z,65.52
2024-05-09T00:13:54.227Z,65.55
2024-05-09T00:14:04.258Z,65.45
2024-05-09T00:14:14.844Z,65.25
2024-05-09T00:14:24.947Z,65.04
2024-05-09T00:14:44.823Z,64.81
2024-05-09T00:14:54.119Z,65.04
2024-05-09T00:15:04.123Z,65.14
2024-05-09T00:15:14.195Z,65.25
2024-05-09T00:15:24.163Z,65.34
2024-05-09T00:15:34.794Z,65.45
2024-05-09T00:15:54.129Z,65.48
2024-05-09T00:16:04.170Z,65.58
2024-05-09T00:16:14.861Z,65.55
2024-05-09T00:16:24.140Z,65.58
2024-05-09T00:16:34.367Z,65.58
2024-05-09T00:16:44.272Z,65.86
2024-05-09T00:16:56.883Z,65.89
2024-05-09T00:17:04.900Z,66.09
2024-05-09T00:17:24.305Z,66.19
2024-05-09T00:17:34.350Z,66.27
2024-05-09T00:17:44.582Z,66.36
2024-05-09T00:17:54.986Z,66.39
2024-05-09T00:18:04.781Z,66.39
2024-05-09T00:18:14.429Z,66.50
2024-05-09T00:18:36.926Z,66.70
2024-05-09T00:18:44.156Z,66.80
2024-05-09T00:18:54.318Z,66.80
2024-05-09T00:19:04.322Z,66.91
2024-05-09T00:19:14.527Z,66.91
2024-05-09T00:19:24.912Z,67.11
2024-05-09T00:19:44.212Z,67.21
2024-05-09T00:19:54.133Z,67.21
2024-05-09T00:20:09.091Z,67.32
2024-05-09T00:20:20.409Z,67.32
2024-05-09T00:20:28.516Z,67.32
2024-05-09T00:20:38.781Z,67.45
2024-05-09T00:20:44.224Z,67.52
2024-05-09T00:21:04.369Z,67.52
2024-05-09T00:21:14.204Z,67.62
2024-05-09T00:21:24.102Z,67.62
2024-05-09T00:21:34.095Z,67.65
2024-05-09T00:21:44.126Z,67.72
2024-05-09T00:21:54.096Z,67.72
2024-05-09T00:22:14.123Z,67.96
2024-05-09T00:22:24.842Z,67.85
2024-05-09T00:22:34.104Z,67.93
2024-05-09T00:22:44.865Z,67.96
2024-05-09T00:22:54.102Z,67.93
2024-05-09T00:23:04.117Z,68.06
2024-05-09T00:23:14.832Z,68.03
2024-05-09T00:23:34.292Z,68.13
2024-05-09T00:23:44.217Z,68.26
2024-05-09T00:23:54.108Z,68.26
2024-05-09T00:24:04.114Z,68.33
2024-05-09T00:24:14.157Z,68.33
2024-05-09T00:24:24.083Z,68.33
2024-05-09T00:24:44.116Z,68.33
2024-05-09T00:24:54.297Z,68.33
2024-05-09T00:25:04.114Z,68.37
2024-05-09T00:25:14.213Z,68.33
2024-05-09T00:25:24.089Z,68.44
2024-05-09T00:25:34.082Z,68.33
2024-05-09T00:25:44.564Z,68.33
2024-05-09T00:26:04.225Z,68.44
2024-05-09T00:26:14.205Z,68.33
2024-05-09T00:26:24.150Z,68.44
2024-05-09T00:26:34.236Z,68.47
2024-05-09T00:26:44.141Z,68.54
2024-05-09T00:26:54.797Z,68.44
2024-05-09T00:27:14.167Z,68.54
2024-05-09T00:27:24.069Z,68.67
2024-05-09T00:27:34.097Z,68.67
2024-05-09T00:27:44.116Z,68.64
2024-05-09T00:27:54.079Z,68.54
2024-05-09T00:28:04.092Z,68.64
2024-05-09T00:28:14.174Z,68.64
2024-05-09T00:28:34.225Z,68.74
2024-05-09T00:28:44.129Z,68.77
2024-05-09T00:28:54.119Z,68.67
2024-05-09T00:29:04.287Z,68.77
2024-05-09T00:29:14.327Z,68.77
2024-05-09T00:29:24.144Z,68.77
2024-05-09T00:29:44.058Z,68.77
2024-05-09T00:29:54.059Z,68.77
2024-05-09T00:30:04.346Z,68.77
2024-05-09T00:30:21.116Z,68.74
2024-05-09T00:30:31.690Z,68.77
2024-05-09T00:30:36.425Z,68.77
2024-05-09T00:30:54.380Z,68.88
2024-05-09T00:31:04.125Z,68.98
2024-05-09T00:31:14.049Z,68.98
2024-05-09T00:31:24.080Z,69.08
2024-05-09T00:31:34.067Z,69.08
2024-05-09T00:31:44.131Z,68.98
2024-05-09T00:32:04.280Z,69.08
2024-05-09T00:32:14.235Z,69.08
2024-05-09T00:32:24.243Z,69.21
2024-05-09T00:32:34.261Z,69.18
2024-05-09T00:32:44.166Z,69.18
2024-05-09T00:32:54.866Z,69.25
2024-05-09T00:33:14.981Z,69.38
2024-05-09T00:33:24.390Z,69.29
2024-05-09T00:33:34.174Z,69.49
2024-05-09T00:33:44.204Z,69.49
2024-05-09T00:33:54.172Z,69.49
2024-05-09T00:34:04.162Z,69.59
2024-05-09T00:34:24.172Z,69.73
2024-05-09T00:34:34.045Z,69.59
2024-05-09T00:34:44.060Z,69.69
2024-05-09T00:34:54.885Z,69.62
2024-05-09T00:35:04.080Z,69.69
2024-05-09T00:35:14.295Z,69.62
2024-05-09T00:35:24.178Z,69.69
2024-05-09T00:35:34.154Z,69.79
2024-05-09T00:35:54.140Z,69.79
2024-05-09T00:36:04.808Z,69.90
2024-05-09T00:36:14.780Z,69.90
2024-05-09T00:36:24.034Z,70.03
2024-05-09T00:36:34.816Z,69.90
2024-05-09T00:36:44.064Z,70.03
2024-05-09T00:37:04.035Z,70.03
2024-05-09T00:37:14.192Z,70.03
2024-05-09T00:37:24.018Z,70.03
2024-05-09T00:37:34.042Z,70.00
2024-05-09T00:37:44.030Z,70.03
2024-05-09T00:37:54.081Z,70.14
2024-05-09T00:38:14.103Z,70.23
2024-05-09T00:38:24.855Z,70.23
2024-05-09T00:38:34.181Z,70.34
2024-05-09T00:38:44.038Z,70.37
2024-05-09T00:38:54.020Z,70.34
2024-05-09T00:39:04.179Z,70.34
2024-05-09T00:39:14.984Z,70.34
2024-05-09T00:39:34.013Z,70.37
2024-05-09T00:39:44.027Z,70.44
2024-05-09T00:39:54.049Z,70.57
2024-05-09T00:40:05.819Z,70.64
2024-05-09T00:40:22.449Z,70.64
2024-05-09T00:40:31.177Z,70.78
2024-05-09T00:40:44.059Z,70.75
2024-05-09T00:40:54.054Z,70.85
2024-05-09T00:41:04.091Z,70.88
2024-05-09T00:41:15.203Z,70.98
2024-05-09T00:41:24.053Z,71.09
2024-05-09T00:41:34.118Z,71.09
2024-05-09T00:41:44.148Z,71.15
2024-05-09T00:42:04.004Z,71.50
2024-05-09T00:42:14.060Z,71.50
2024-05-09T00:42:24.039Z,71.39
2024-05-09T00:42:34.029Z,71.50
2024-05-09T00:42:44.041Z,71.50
2024-05-09T00:42:54.006Z,71.59
2024-05-09T00:43:04.024Z,71.70
2024-05-09T00:43:24.011Z,71.73
2024-05-09T00:43:34.083Z,71.70
2024-05-09T00:43:44.043Z,71.83
2024-05-09T00:43:54.035Z,72.04
2024-05-09T00:44:04.014Z,72.11
2024-05-09T00:44:14.049Z,72.31
2024-05-09T00:44:24.153Z,72.41
2024-05-09T00:44:44.031Z,72.45
2024-05-09T00:44:53.986Z,72.45
2024-05-09T00:45:04.046Z,72.41
2024-05-09T00:45:14.078Z,72.65
2024-05-09T00:45:24.003Z,72.72
2024-05-09T00:45:34.893Z,72.86
2024-05-09T00:45:54.026Z,73.06
2024-05-09T00:46:03.996Z,73.13
2024-05-09T00:46:13.976Z,73.27
2024-05-09T00:46:24.038Z,73.27
2024-05-09T00:46:34.055Z,73.06
2024-05-09T00:46:44.015Z,73.27
2024-05-09T00:46:54.875Z,73.36
2024-05-09T00:47:04.086Z,73.30
2024-05-09T00:47:24.159Z,73.36
2024-05-09T00:47:34.247Z,73.47
2024-05-09T00:47:44.219Z,73.57
2024-05-09T00:47:54.275Z,73.71
2024-05-09T00:48:04.340Z,73.68
2024-05-09T00:48:16.461Z,73.81
2024-05-09T00:48:24.910Z,73.77
2024-05-09T00:48:44.007Z,73.68
2024-05-09T00:48:54.035Z,73.77
2024-05-09T00:49:04.101Z,73.88
2024-05-09T00:49:14.048Z,74.02
2024-05-09T00:49:24.056Z,74.02
2024-05-09T00:49:34.122Z,74.11
2024-05-09T00:49:44.109Z,74.22
2024-05-09T00:49:54.903Z,74.32
2024-05-09T00:50:19.312Z,74.43
2024-05-09T00:50:29.971Z,74.43
2024-05-09T00:50:36.785Z,74.66
2024-05-09T00:50:44.055Z,74.73
2024-05-09T00:50:53.980Z,74.73
2024-05-09T00:51:03.982Z,74.73
2024-05-09T00:51:14.141Z,74.87
2024-05-09T00:51:34.046Z,75.07
2024-05-09T00:51:43.992Z,75.14
2024-05-09T00:51:54.125Z,75.24
2024-05-09T00:52:03.993Z,75.14
2024-05-09T00:52:13.980Z,75.27
2024-05-09T00:52:23.960Z,75.27
2024-05-09T00:52:44.144Z,75.48
2024-05-09T00:52:53.997Z,75.59
2024-05-09T00:53:05.003Z,75.59
2024-05-09T00:53:14.120Z,75.59
2024-05-09T00:53:24.025Z,75.59
2024-05-09T00:53:34.108Z,75.68
2024-05-09T00:53:44.863Z,75.68
2024-05-09T00:53:54.857Z,75.79
2024-05-09T00:54:13.988Z,75.89
2024-05-09T00:54:23.940Z,75.79
2024-05-09T00:54:33.997Z,75.89
2024-05-09T00:54:43.953Z,75.89
2024-05-09T00:54:53.951Z,75.89
2024-05-09T00:55:03.973Z,75.99
2024-05-09T00:55:23.966Z,76.09
2024-05-09T00:55:33.975Z,76.09
2024-05-09T00:55:44.019Z,76.20
2024-05-09T00:55:54.840Z,76.20
2024-05-09T00:56:04.082Z,76.20
2024-05-09T00:56:14.019Z,76.34
2024-05-09T00:56:24.066Z,76.34
2024-05-09T00:56:44.023Z,76.30
2024-05-09T00:56:53.964Z,76.34
2024-05-09T00:57:03.943Z,76.43
2024-05-09T00:57:13.968Z,76.34
2024-05-09T00:57:23.960Z,76.40
2024-05-09T00:57:33.941Z,76.43
2024-05-09T00:57:54.002Z,76.50
2024-05-09T00:58:04.868Z,76.54
2024-05-09T00:58:14.149Z,76.61
2024-05-09T00:58:23.953Z,76.61
2024-05-09T00:58:33.938Z,76.75
2024-05-09T00:58:43.955Z,76.75
2024-05-09T00:59:03.989Z,76.75
2024-05-09T00:59:13.970Z,76.84
2024-05-09T00:59:25.011Z,76.84
2024-05-09T00:59:33.992Z,76.91
2024-05-09T00:59:44.055Z,77.01
2024-05-09T00:59:53.918Z,77.05
2024-05-09T01:00:22.645Z,77.46
2024-05-09T01:00:31.506Z,77.56
2024-05-09T01:00:39.236Z,77.67
2024-05-09T01:00:44.137Z,77.76
2024-05-09T01:00:54.045Z,77.80
2024-05-09T01:01:03.988Z,77.87
2024-05-09T01:01:23.981Z,77.97
2024-05-09T01:01:34.054Z,77.97
2024-05-09T01:01:44.299Z,78.01
2024-05-09T01:01:54.026Z,77.97
2024-05-09T01:02:04.025Z,78.08
2024-05-09T01:02:14.919Z,78.21
2024-05-09T01:02:24.129Z,78.42
2024-05-09T01:02:34.050Z,78.52
2024-05-09T01:02:54.040Z,78.72
2024-05-09T01:03:04.165Z,78.72
2024-05-09T01:03:14.590Z,78.72
2024-05-09T01:03:24.331Z,78.72
2024-05-09T01:03:34.072Z,78.83
2024-05-09T01:03:45.254Z,78.83
2024-05-09T01:03:54.195Z,78.83
2024-05-09T01:04:14.150Z,78.93
2024-05-09T01:04:24.118Z,79.07
2024-05-09T01:04:33.979Z,79.03
2024-05-09T01:04:44.039Z,79.13
2024-05-09T01:04:53.981Z,79.13
2024-05-09T01:05:04.029Z,79.13
2024-05-09T01:05:23.912Z,79.27
2024-05-09T01:05:33.978Z,79.20
2024-05-09T01:05:44.051Z,79.24
2024-05-09T01:05:53.930Z,79.24
2024-05-09T01:06:04.102Z,79.38
2024-05-09T01:06:14.144Z,79.34
2024-05-09T01:06:24.849Z,79.38
2024-05-09T01:06:34.042Z,79.34
2024-05-09T01:06:43.997Z,79.38
2024-05-09T01:06:53.997Z,79.44
2024-05-09T01:07:13.941Z,79.48
2024-05-09T01:07:23.896Z,79.48
2024-05-09T01:07:33.914Z,79.44
2024-05-09T01:07:43.966Z,79.44
2024-05-09T01:07:53.948Z,79.44
2024-05-09T01:08:03.975Z,79.44
2024-05-09T01:08:14.871Z,79.48
2024-05-09T01:08:24.006Z,79.48
2024-05-09T01:08:34.211Z,79.44
2024-05-09T01:08:53.904Z,79.48
2024-05-09T01:09:03.888Z,79.44
2024-05-09T01:09:13.887Z,79.44
2024-05-09T01:09:23.903Z,79.54
2024-05-09T01:09:33.898Z,79.58
2024-05-09T01:09:43.912Z,79.54
2024-05-09T01:10:05.585Z,79.64
2024-05-09T01:10:21.188Z,79.64
2024-05-09T01:10:32.266Z,79.64
2024-05-09T01:10:36.088Z,79.64
2024-05-09T01:10:46.008Z,79.64
2024-05-09T01:10:54.045Z,79.79
2024-05-09T01:11:04.133Z,79.79
2024-05-09T01:11:24.112Z,79.85
2024-05-09T01:11:33.963Z,79.85
2024-05-09T01:11:44.007Z,79.85
2024-05-09T01:11:53.946Z,79.99
2024-05-09T01:12:04.222Z,79.99
2024-05-09T01:12:14.105Z,80.09
2024-05-09T01:12:35.091Z,79.99
2024-05-09T01:12:44.015Z,79.99
2024-05-09T01:12:53.867Z,79.99
2024-05-09T01:13:04.523Z,79.96
2024-05-09T01:13:13.997Z,80.09
2024-05-09T01:13:23.898Z,80.09
2024-05-09T01:13:44.081Z,80.19
2024-05-09T01:13:53.911Z,80.19
2024-05-09T01:14:03.970Z,80.33
2024-05-09T01:14:13.960Z,80.40
2024-05-09T01:14:23.950Z,80.40
2024-05-09T01:14:34.018Z,80.51
2024-05-09T01:14:53.858Z,80.60
2024-05-09T01:15:03.859Z,80.60
2024-05-09T01:15:13.922Z,80.60
2024-05-09T01:15:23.874Z,80.74
2024-05-09T01:15:34.045Z,80.74
2024-05-09T01:15:44.867Z,80.60
2024-05-09T01:15:53.871Z,80.71
2024-05-09T01:16:03.903Z,80.71
2024-05-09T01:16:23.977Z,80.81
2024-05-09T01:16:33.944Z,80.81
2024-05-09T01:16:44.021Z,80.81
2024-05-09T01:16:54.012Z,80.81
2024-05-09T01:17:03.911Z,80.81
2024-05-09T01:17:13.974Z,80.81
2024-05-09T01:17:24.477Z,80.71
2024-05-09T01:17:44.104Z,80.81
2024-05-09T01:17:55.074Z,80.85
2024-05-09T01:18:04.290Z,80.95
2024-05-09T01:18:14.312Z,80.85
2024-05-09T01:18:23.943Z,80.85
2024-05-09T01:18:34.042Z,80.85
2024-05-09T01:18:43.992Z,80.95
2024-05-09T01:19:03.968Z,80.91
2024-05-09T01:19:14.103Z,80.91
2024-05-09T01:19:23.970Z,80.85
2024-05-09T01:19:33.989Z,80.95
2024-05-09T01:19:43.896Z,80.81
2024-05-09T01:19:53.955Z,80.85
2024-05-09T01:20:20.231Z,80.85
2024-05-09T01:20:32.119Z,80.95
2024-05-09T01:20:41.107Z,80.91
2024-05-09T01:20:45.322Z,80.95
2024-05-09T01:20:53.917Z,80.95
2024-05-09T01:21:03.906Z,81.05
2024-05-09T01:21:23.939Z,81.15
2024-05-09T01:21:33.895Z,81.26
2024-05-09T01:21:43.884Z,81.15
2024-05-09T01:21:53.907Z,81.26
2024-05-09T01:22:03.848Z,81.26
2024-05-09T01:22:13.821Z,81.40
2024-05-09T01:22:33.898Z,81.36
2024-05-09T01:22:43.882Z,81.46
2024-05-09T01:22:53.950Z,81.46
2024-05-09T01:23:04.039Z,81.46
2024-05-09T01:23:15.669Z,81.46
2024-05-09T01:23:23.871Z,81.57
2024-05-09T01:23:34.044Z,81.57
2024-05-09T01:23:43.856Z,81.67
2024-05-09T01:23:53.957Z,81.67
2024-05-09T01:24:13.851Z,81.57
2024-05-09T01:24:23.814Z,81.57
2024-05-09T01:24:33.845Z,81.71
2024-05-09T01:24:43.877Z,81.67
2024-05-09T01:24:53.816Z,81.77
2024-05-09T01:25:04.331Z,81.77
2024-05-09T01:25:23.818Z,81.87
2024-05-09T01:25:33.818Z,81.87
2024-05-09T01:25:43.996Z,81.81
2024-05-09T01:25:53.902Z,81.91
2024-05-09T01:26:03.935Z,81.87
2024-05-09T01:26:13.867Z,82.01
2024-05-09T01:26:33.891Z,82.01
2024-05-09T01:26:43.831Z,82.01
2024-05-09T01:26:53.839Z,82.08
2024-05-09T01:27:03.820Z,82.12
2024-05-09T01:27:13.813Z,82.32
2024-05-09T01:27:23.857Z,82.28
2024-05-09T01:27:33.907Z,82.28
2024-05-09T01:27:43.853Z,82.22
2024-05-09T01:28:03.875Z,82.28
2024-05-09T01:28:13.907Z,82.32
2024-05-09T01:28:23.811Z,82.39
2024-05-09T01:28:34.338Z,82.42
2024-05-09T01:28:43.880Z,82.42
2024-05-09T01:28:53.936Z,82.42
2024-05-09T01:29:03.881Z,82.42
2024-05-09T01:29:14.397Z,82.42
2024-05-09T01:29:34.404Z,82.53
2024-05-09T01:29:43.848Z,82.53
2024-05-09T01:29:53.846Z,82.53
2024-05-09T01:30:06.932Z,82.53
2024-05-09T01:30:17.443Z,82.63
2024-05-09T01:30:31.312Z,82.63
2024-05-09T01:30:43.794Z,82.59
2024-05-09T01:30:53.834Z,82.59
2024-05-09T01:31:03.804Z,82.63
2024-05-09T01:31:14.365Z,82.73
2024-05-09T01:31:23.863Z,82.59
2024-05-09T01:31:33.919Z,82.63
2024-05-09T01:31:53.943Z,82.63
2024-05-09T01:32:03.980Z,82.59
2024-05-09T01:32:13.858Z,82.59
2024-05-09T01:32:23.873Z,82.59
2024-05-09T01:32:34.002Z,82.69
2024-05-09T01:32:43.903Z,82.73
2024-05-09T01:33:04.501Z,82.87
2024-05-09T01:33:14.332Z,82.83
2024-05-09T01:33:24.025Z,82.93
2024-05-09T01:33:34.052Z,82.93
2024-05-09T01:33:44.180Z,83.04
2024-05-09T01:33:53.879Z,83.04
2024-05-09T01:34:13.856Z,83.04
2024-05-09T01:34:23.801Z,83.14
2024-05-09T01:34:33.771Z,83.14
2024-05-09T01:34:43.806Z,83.25
2024-05-09T01:34:53.821Z,83.25
2024-05-09T01:35:03.832Z,83.28
2024-05-09T01:35:23.993Z,83.39
2024-05-09T01:35:33.930Z,83.39
2024-05-09T01:35:43.790Z,83.34
2024-05-09T01:35:53.769Z,83.34
2024-05-09T01:36:03.801Z,83.45
2024-05-09T01:36:13.760Z,83.45
2024-05-09T01:36:33.900Z,83.59
2024-05-09T01:36:43.762Z,83.59
2024-05-09T01:36:53.791Z,83.55
2024-05-09T01:37:03.775Z,83.65
2024-05-09T01:37:13.823Z,83.69
2024-05-09T01:37:23.765Z,83.69
2024-05-09T01:37:34.455Z,83.80
2024-05-09T01:37:43.919Z,83.80
2024-05-09T01:38:04.110Z,83.80
2024-05-09T01:38:14.311Z,83.86
2024-05-09T01:38:23.848Z,83.86
2024-05-09T01:38:34.453Z,83.90
2024-05-09T01:38:43.787Z,83.90
2024-05-09T01:38:53.766Z,83.90
2024-05-09T01:39:14.356Z,84.00
2024-05-09T01:39:23.778Z,84.00
2024-05-09T01:39:33.795Z,84.10
2024-05-09T01:39:43.751Z,84.10
2024-05-09T01:39:53.787Z,84.10
2024-05-09T01:40:07.311Z,84.20
2024-05-09T01:40:33.350Z,84.27
2024-05-09T01:40:38.281Z,84.34
2024-05-09T01:40:44.379Z,84.41
2024-05-09T01:40:53.809Z,84.45
2024-05-09T01:41:03.936Z,84.55
2024-05-09T01:41:13.923Z,84.52
2024-05-09T01:41:33.812Z,84.61
2024-05-09T01:41:44.350Z,84.61
2024-05-09T01:41:53.889Z,84.76
2024-05-09T01:42:03.772Z,84.76
2024-05-09T01:42:13.755Z,84.76
2024-05-09T01:42:23.817Z,84.86
2024-05-09T01:42:43.850Z,84.86
2024-05-09T01:42:53.742Z,84.96
2024-05-09T01:43:03.811Z,84.96
2024-05-09T01:43:13.815Z,84.96
2024-05-09T01:43:23.843Z,85.06
2024-05-09T01:43:33.738Z,85.06
2024-05-09T01:43:53.889Z,85.06
2024-05-09T01:44:03.783Z,85.13
2024-05-09T01:44:13.887Z,85.27
2024-05-09T01:44:23.834Z,85.17
2024-05-09T01:44:33.782Z,85.27
2024-05-09T01:44:43.734Z,85.27
2024-05-09T01:45:03.780Z,85.27
2024-05-09T01:45:13.744Z,85.38
2024-05-09T01:45:23.726Z,85.38
2024-05-09T01:45:33.766Z,85.38
2024-05-09T01:45:43.738Z,85.38
2024-05-09T01:45:53.773Z,85.38
2024-05-09T01:46:13.736Z,85.38
2024-05-09T01:46:23.749Z,85.38
2024-05-09T01:46:33.719Z,85.38
2024-05-09T01:46:43.834Z,85.38
2024-05-09T01:46:53.732Z,85.41
2024-05-09T01:47:03.761Z,85.47
2024-05-09T01:47:13.850Z,85.47
2024-05-09T01:47:23.881Z,85.52
2024-05-09T01:47:33.899Z,85.52
2024-05-09T01:47:53.914Z,85.47
2024-05-09T01:48:04.249Z,85.38
2024-05-09T01:48:13.898Z,85.47
2024-05-09T01:48:23.910Z,85.41
2024-05-09T01:48:33.882Z,85.47
2024-05-09T01:48:43.879Z,85.47
2024-05-09T01:49:03.829Z,85.58
2024-05-09T01:49:14.000Z,85.58
2024-05-09T01:49:24.034Z,85.47
2024-05-09T01:49:33.939Z,85.58
2024-05-09T01:49:43.908Z,85.58
2024-05-09T01:49:53.740Z,85.58
2024-05-09T01:50:05.052Z,85.47
2024-05-09T01:50:38.956Z,85.58
2024-05-09T01:50:43.963Z,85.58
2024-05-09T01:50:53.790Z,85.62
2024-05-09T01:51:03.773Z,85.58
2024-05-09T01:51:13.793Z,85.58
2024-05-09T01:51:23.759Z,85.58
2024-05-09T01:51:43.783Z,85.68
2024-05-09T01:51:53.724Z,85.72
2024-05-09T01:52:03.746Z,85.68
2024-05-09T01:52:13.820Z,85.68
2024-05-09T01:52:23.700Z,85.68
2024-05-09T01:52:33.702Z,85.68
2024-05-09T01:52:43.753Z,85.78
2024-05-09T01:53:03.723Z,85.82
2024-05-09T01:53:15.213Z,85.93
2024-05-09T01:53:23.775Z,85.89
2024-05-09T01:53:33.940Z,85.93
2024-05-09T01:53:43.823Z,85.78
2024-05-09T01:53:53.751Z,85.93
2024-05-09T01:54:13.745Z,85.82
2024-05-09T01:54:23.712Z,85.89
2024-05-09T01:54:33.701Z,85.78
2024-05-09T01:54:43.714Z,85.93
2024-05-09T01:54:53.707Z,85.89
2024-05-09T01:55:06.326Z,85.93
2024-05-09T01:55:13.713Z,85.89
2024-05-09T01:55:33.711Z,85.78
2024-05-09T01:55:43.865Z,85.78
2024-05-09T01:55:53.738Z,85.82
2024-05-09T01:56:03.732Z,85.78
2024-05-09T01:56:13.815Z,85.78
2024-05-09T01:56:23.748Z,85.78
2024-05-09T01:56:33.789Z,85.82
2024-05-09T01:56:44.371Z,85.82
2024-05-09T01:57:03.702Z,85.82
2024-05-09T01:57:13.684Z,85.78
2024-05-09T01:57:23.692Z,85.82
2024-05-09T01:57:33.692Z,85.78
2024-05-09T01:57:43.696Z,85.78
2024-05-09T01:57:53.671Z,85.82
2024-05-09T01:58:13.689Z,85.93
2024-05-09T01:58:23.704Z,85.93
2024-05-09T01:58:33.672Z,85.93
2024-05-09T01:58:43.749Z,85.82
2024-05-09T01:58:53.688Z,85.82
2024-05-09T01:59:03.789Z,85.89
2024-05-09T01:59:23.687Z,85.93
2024-05-09T01:59:33.711Z,85.82
2024-05-09T01:59:43.671Z,85.78
2024-05-09T01:59:53.675Z,85.93
2024-05-09T02:00:03.873Z,85.89
2024-05-09T02:00:18.997Z,85.89
2024-05-09T02:00:33.755Z,85.89
2024-05-09T02:00:39.238Z,85.93
2024-05-09T02:00:43.898Z,85.89
2024-05-09T02:00:54.342Z,85.93
2024-05-09T02:01:03.735Z,85.89
2024-05-09T02:01:23.667Z,85.93
2024-05-09T02:01:55.476Z,85.99
2024-05-09T02:01:56.271Z,86.03
2024-05-09T02:01:56.972Z,85.93
2024-05-09T02:02:03.987Z,86.03
2024-05-09T02:02:13.861Z,85.99
2024-05-09T02:02:23.773Z,85.99
2024-05-09T02:02:33.845Z,86.03
2024-05-09T02:02:44.132Z,86.03
2024-05-09T02:03:03.851Z,86.03
2024-05-09T02:03:16.450Z,86.03
2024-05-09T02:03:23.845Z,86.03
2024-05-09T02:03:33.807Z,86.03
2024-05-09T02:03:43.745Z,86.13
2024-05-09T02:03:53.925Z,86.13
2024-05-09T02:04:13.938Z,86.24
2024-05-09T02:04:23.949Z,86.13
2024-05-09T02:04:34.084Z,86.24
2024-05-09T02:04:44.174Z,86.19
2024-05-09T02:04:53.819Z,86.24
2024-05-09T02:05:03.804Z,86.09
2024-05-09T02:05:23.722Z,86.03
2024-05-09T02:05:33.687Z,85.99
2024-05-09T02:05:43.850Z,86.13
2024-05-09T02:05:53.683Z,86.13
2024-05-09T02:06:03.782Z,86.13
2024-05-09T02:06:13.696Z,86.24
2024-05-09T02:06:33.673Z,86.09
2024-05-09T02:06:43.661Z,86.13
2024-05-09T02:06:53.647Z,85.99
2024-05-09T02:07:03.671Z,86.03
2024-05-09T02:07:13.670Z,85.89
2024-05-09T02:07:23.671Z,85.93
2024-05-09T02:07:43.687Z,85.78
2024-05-09T02:07:53.658Z,85.78
2024-05-09T02:08:03.782Z,85.78
2024-05-09T02:08:13.782Z,85.82
2024-05-09T02:08:23.669Z,85.82
2024-05-09T02:08:33.710Z,85.78
2024-05-09T02:08:53.656Z,85.82
2024-05-09T02:09:03.695Z,85.78
2024-05-09T02:09:13.645Z,85.93
2024-05-09T02:09:23.660Z,85.93
2024-05-09T02:09:33.632Z,85.89
2024-05-09T02:09:43.653Z,85.89
2024-05-09T02:09:53.647Z,85.99
2024-05-09T02:10:20.318Z,86.03
2024-05-09T02:10:31.663Z,85.99
2024-05-09T02:10:33.868Z,86.09
2024-05-09T02:10:43.826Z,85.99
2024-05-09T02:10:53.820Z,85.99
2024-05-09T02:11:03.705Z,85.99
2024-05-09T02:11:23.722Z,86.03
2024-05-09T02:11:33.756Z,85.89
2024-05-09T02:11:43.691Z,85.89
2024-05-09T02:11:53.674Z,85.89
2024-05-09T02:12:03.656Z,85.89
2024-05-09T02:12:28.576Z,85.89
2024-05-09T02:12:28.872Z,85.85
2024-05-09T02:12:38.822Z,85.78
2024-05-09T02:12:48.841Z,85.78
2024-05-09T02:12:58.815Z,85.78
2024-05-09T02:13:08.808Z,85.78
2024-05-09T02:13:28.817Z,85.64
2024-05-09T02:13:38.830Z,85.68
2024-05-09T02:13:48.852Z,85.68
2024-05-09T02:13:58.836Z,85.72
2024-05-09T02:14:09.010Z,85.72
2024-05-09T02:14:18.844Z,85.68
2024-05-09T02:14:38.866Z,85.62
2024-05-09T02:14:48.960Z,85.72
2024-05-09T02:14:58.822Z,85.72
2024-05-09T02:15:08.804Z,85.82
2024-05-09T02:15:18.832Z,85.82
2024-05-09T02:15:28.874Z,85.68
2024-05-09T02:15:38.813Z,85.72
2024-05-09T02:15:58.813Z,85.72
2024-05-09T02:16:08.842Z,85.82
2024-05-09T02:16:18.801Z,85.82
2024-05-09T02:16:28.881Z,85.82
2024-05-09T02:16:38.788Z,85.82
2024-05-09T02:16:48.856Z,85.93
2024-05-09T02:17:08.917Z,86.03
2024-05-09T02:17:18.877Z,86.03
2024-05-09T02:17:29.531Z,86.03
2024-05-09T02:17:39.085Z,86.03
2024-05-09T02:17:49.068Z,86.13
2024-05-09T02:17:58.993Z,86.13
2024-05-09T02:18:09.336Z,86.13
2024-05-09T02:18:18.989Z,86.27
2024-05-09T02:18:38.876Z,86.27
2024-05-09T02:18:48.938Z,86.17
2024-05-09T02:18:58.862Z,86.17
2024-05-09T02:19:08.889Z,86.17
2024-05-09T02:19:18.976Z,86.13
2024-05-09T02:19:28.959Z,86.17
2024-05-09T02:19:38.897Z,86.13
2024-05-09T02:19:59.451Z,86.13
2024-05-09T02:20:13.225Z,86.24
2024-05-09T02:20:27.425Z,86.24
2024-05-09T02:20:34.146Z,86.24
2024-05-09T02:20:38.937Z,86.17
2024-05-09T02:20:48.829Z,86.27
2024-05-09T02:21:08.927Z,86.33
2024-05-09T02:21:18.783Z,86.38
2024-05-09T02:21:28.777Z,86.33
2024-05-09T02:21:38.810Z,86.38
2024-05-09T02:21:48.786Z,86.44
2024-05-09T02:21:58.785Z,86.38
2024-05-09T02:22:08.832Z,86.48
2024-05-09T02:22:18.831Z,86.48
2024-05-09T02:22:38.803Z,86.54
2024-05-09T02:22:48.920Z,86.58
2024-05-09T02:22:58.776Z,86.54
2024-05-09T02:23:09.059Z,86.58
2024-05-09T02:23:18.792Z,86.58
2024-05-09T02:23:28.832Z,86.58
2024-05-09T02:23:39.380Z,86.58
2024-05-09T02:23:48.851Z,86.58
2024-05-09T02:23:58.947Z,86.58
2024-05-09T02:24:08.802Z,86.58
2024-05-09T02:24:18.877Z,86.68
2024-05-09T02:24:28.829Z,86.79
2024-05-09T02:24:48.770Z,86.79
2024-05-09T02:24:58.799Z,86.93
2024-05-09T02:25:08.801Z,86.89
2024-05-09T02:25:18.814Z,87.04
2024-05-09T02:25:28.787Z,86.99
2024-05-09T02:25:38.777Z,86.95
2024-05-09T02:25:48.830Z,87.13
2024-05-09T02:26:09.365Z,87.30
2024-05-09T02:26:18.813Z,87.34
2024-05-09T02:26:28.911Z,87.30
2024-05-09T02:26:38.904Z,87.30
2024-05-09T02:26:48.781Z,87.40
2024-05-09T02:26:58.766Z,87.51
2024-05-09T02:27:18.750Z,87.75
2024-05-09T02:27:28.746Z,87.75
2024-05-09T02:27:39.350Z,87.75
2024-05-09T02:27:48.810Z,87.85
2024-05-09T02:27:58.981Z,87.96
2024-05-09T02:28:09.346Z,88.02